Terminal Aerodrome Forecast
Issued by NWS Paducah, KY

Home | Current Version | Previous Version | Text Only | Print | Product List | Glossary Off
Versions: 1 2 3 4 5 6 7 8 9 10 11 12 13 14 15 16

000
FTUS43 KPAH 231100
TAFPAH
TAF
KPAH 231122Z 2312/2412 00000KT 3SM BR MIFG SCT250
      TEMPO 2312/2313 2SM BR MIFG
     FM231400 14004KT P6SM BKN250
     FM240100 00000KT P6SM SCT060 BKN150=

USA.gov is the U.S. government's official web portal to all federal, state and local government web resources and services.